Time;durP1;ratioP1;P1;durP2;ratioP2;P2;SDS_P1;SDS_P2;PMS_P1;PMS_P2;Temp;Humidity;BMP_temperature;BMP_pressure;BME280_temperature;BME280_humidity;BME280_pressure;Samples;Min_cycle;Max_cycle;Signal;HPM_P1;HPM_P2
2022/10/18 00:01:52;;;;;;;10.15;8.02;;;;;;;15.65;100.00;102457.88;6161204;23;20398;-86
2022/10/18 00:04:20;;;;;;;13.52;7.85;;;;;;;15.73;100.00;102469.56;6161271;23;20013;-85
2022/10/18 00:06:46;;;;;;;10.10;7.30;;;;;;;15.75;100.00;102473.13;6186680;23;20040;-85
2022/10/18 00:09:11;;;;;;;13.23;7.60;;;;;;;15.74;100.00;102460.69;6160731;23;20340;-85
2022/10/18 00:11:40;;;;;;;13.38;8.20;;;;;;;15.75;100.00;102458.91;6186796;23;20416;-86
2022/10/18 00:14:05;;;;;;;14.85;7.80;;;;;;;15.75;100.00;102462.47;6186911;23;20009;-86
2022/10/18 00:16:31;;;;;;;14.65;7.90;;;;;;;15.74;100.00;102467.78;6186578;23;20009;-85
2022/10/18 00:18:56;;;;;;;14.05;8.77;;;;;;;15.74;100.00;102452.69;6186928;23;20013;-85
2022/10/18 00:21:23;;;;;;;13.68;7.88;;;;;;;15.78;100.00;102470.53;6186533;23;20060;-85
2022/10/18 00:23:50;;;;;;;12.65;8.50;;;;;;;15.79;100.00;102466.09;6160829;23;20332;-85
2022/10/18 00:26:27;;;;;;;9.77;7.63;;;;;;;15.70;100.00;102455.28;6160919;23;20343;-85
2022/10/18 00:28:59;;;;;;;10.05;6.90;;;;;;;15.66;100.00;102459.66;6186879;23;20017;-85
2022/10/18 00:31:29;;;;;;;16.23;8.20;;;;;;;15.58;100.00;102463.94;6187218;23;20015;-85
2022/10/18 00:34:00;;;;;;;10.82;7.55;;;;;;;15.55;100.00;102460.34;6187514;23;20220;-85
2022/10/18 00:36:28;;;;;;;9.85;7.55;;;;;;;15.55;100.00;102461.25;6185675;23;20005;-85
2022/10/18 00:38:54;;;;;;;12.20;8.10;;;;;;;15.54;100.00;102454.09;6186744;23;20056;-85
2022/10/18 00:41:23;;;;;;;13.77;7.95;;;;;;;15.62;100.00;102462.22;6160679;23;20013;-85
2022/10/18 00:43:58;;;;;;;12.05;7.88;;;;;;;15.65;100.00;102454.31;6186167;23;20009;-85
2022/10/18 00:46:25;;;;;;;13.18;7.53;;;;;;;15.66;100.00;102461.44;6186762;23;20009;-85
2022/10/18 00:48:54;;;;;;;12.00;7.60;;;;;;;15.70;100.00;102466.84;6187061;23;20001;-85
2022/10/18 00:51:21;;;;;;;13.18;7.63;;;;;;;15.71;100.00;102457.97;6161479;23;20009;-85
2022/10/18 00:53:47;;;;;;;10.93;7.32;;;;;;;15.69;100.00;102466.81;6186640;23;20009;-85
2022/10/18 00:56:13;;;;;;;9.38;7.50;;;;;;;15.67;100.00;102458.81;6160565;23;20012;-85
2022/10/18 00:58:41;;;;;;;11.65;7.60;;;;;;;15.66;100.00;102458.78;6160163;23;20009;-85
2022/10/18 01:01:07;;;;;;;10.15;7.38;;;;;;;15.70;100.00;102465.94;6160072;23;20379;-85
2022/10/18 01:03:34;;;;;;;14.10;7.28;;;;;;;15.66;100.00;102467.66;6160541;23;20135;-85
2022/10/18 01:05:59;;;;;;;11.52;7.32;;;;;;;15.62;100.00;102463.13;6186404;23;20009;-85
2022/10/18 01:08:40;;;;;;;10.48;7.57;;;;;;;15.66;100.00;102480.09;6135884;23;20087;-85
2022/10/18 01:11:20;;;;;;;13.18;7.85;;;;;;;15.62;100.00;102475.56;6186588;23;20011;-86
2022/10/18 01:14:17;;;;;;;14.15;7.68;;;;;;;15.60;100.00;102478.19;6186621;23;20009;-85
2022/10/18 01:16:48;;;;;;;9.27;7.18;;;;;;;15.59;100.00;102483.47;6185565;23;20013;-85
2022/10/18 01:19:41;;;;;;;11.45;7.45;;;;;;;15.63;100.00;102480.00;6186655;23;20088;-86
2022/10/18 01:22:33;;;;;;;10.43;7.55;;;;;;;15.64;100.00;102473.81;6185659;23;20019;-86
2022/10/18 01:25:29;;;;;;;13.30;7.38;;;;;;;15.61;100.00;102473.75;6185359;23;20009;-85
2022/10/18 01:28:06;;;;;;;11.82;7.05;;;;;;;15.55;100.00;102473.69;6186172;23;20000;-85
2022/10/18 01:30:37;;;;;;;11.77;7.28;;;;;;;15.54;100.00;102467.41;6208200;23;20040;-85
2022/10/18 01:33:20;;;;;;;14.10;7.57;;;;;;;15.55;100.00;102477.22;6185892;23;20104;-86
2022/10/18 01:35:55;;;;;;;13.45;7.80;;;;;;;15.55;100.00;102479.91;6184706;23;20009;-85
2022/10/18 01:38:23;;;;;;;9.35;7.28;;;;;;;15.60;100.00;102485.31;6185232;23;20020;-85
2022/10/18 01:40:51;;;;;;;14.52;7.65;;;;;;;15.55;100.00;102477.22;6186475;23;20064;-85
2022/10/18 01:43:21;;;;;;;10.38;6.65;;;;;;;15.55;100.00;102477.22;6184809;23;20020;-85
2022/10/18 01:45:48;;;;;;;11.07;7.28;;;;;;;15.54;100.00;102480.75;6185170;23;20071;-85
2022/10/18 01:48:14;;;;;;;10.35;7.75;;;;;;;15.52;100.00;102475.41;6185237;23;20013;-85
2022/10/18 01:50:40;;;;;;;14.88;8.00;;;;;;;15.56;100.00;102491.44;6184712;23;20346;-85
2022/10/18 01:53:20;;;;;;;10.20;7.35;;;;;;;15.54;100.00;102480.75;6186334;23;20013;-86
2022/10/18 01:55:55;;;;;;;12.45;7.53;;;;;;;15.48;100.00;102476.22;6186548;23;20020;-85
2022/10/18 01:58:30;;;;;;;15.63;7.97;;;;;;;15.50;100.00;102473.56;6185133;23;20033;-86
2022/10/18 02:01:07;;;;;;;13.18;7.53;;;;;;;15.46;100.00;102477.06;6186159;23;20047;-85
2022/10/18 02:03:37;;;;;;;12.05;7.47;;;;;;;15.46;100.00;102482.38;6187163;23;20064;-85
2022/10/18 02:06:24;;;;;;;12.45;7.55;;;;;;;15.51;100.00;102486.94;6186404;23;20005;-85
2022/10/18 02:09:07;;;;;;;16.08;7.95;;;;;;;15.51;100.00;102486.94;6185882;23;20375;-85
2022/10/18 02:11:36;;;;;;;10.57;7.43;;;;;;;15.50;100.00;102487.81;6186328;23;20035;-87
2022/10/18 02:14:07;;;;;;;14.55;7.68;;;;;;;15.53;100.00;102485.19;6186566;23;20005;-85
2022/10/18 02:16:48;;;;;;;11.63;7.05;;;;;;;15.55;100.00;102479.00;6185048;23;20371;-85
2022/10/18 02:19:37;;;;;;;12.40;8.00;;;;;;;15.60;100.00;102479.97;6186782;23;20415;-85
2022/10/18 02:22:04;;;;;;;9.90;7.47;;;;;;;15.55;100.00;102477.22;6187036;23;20032;-85
2022/10/18 02:24:34;;;;;;;11.50;7.90;;;;;;;15.55;100.00;102471.91;6184905;23;20059;-85
2022/10/18 02:27:03;;;;;;;13.52;8.20;;;;;;;15.59;100.00;102479.09;6209845;23;20005;-85
2022/10/18 02:29:29;;;;;;;14.55;7.80;;;;;;;15.55;100.00;102477.22;6185437;23;20020;-85
2022/10/18 02:32:11;;;;;;;16.27;7.30;;;;;;;15.52;100.00;102487.84;6186755;23;20424;-85
2022/10/18 02:34:42;;;;;;;11.35;7.47;;;;;;;15.51;100.00;102486.03;6188497;23;20005;-85
2022/10/18 02:37:09;;;;;;;12.13;7.20;;;;;;;15.46;100.00;102482.38;6188167;23;20033;-85
2022/10/18 02:39:38;;;;;;;12.57;7.82;;;;;;;15.43;100.00;102485.91;6188240;23;20029;-86
2022/10/18 02:42:05;;;;;;;11.13;7.43;;;;;;;15.42;100.00;102492.13;6211529;23;20442;-86
2022/10/18 02:44:32;;;;;;;11.52;8.00;;;;;;;15.45;100.00;102496.59;6187962;23;20001;-85
2022/10/18 02:46:58;;;;;;;9.65;7.65;;;;;;;15.41;100.00;102490.31;6188042;23;20009;-85
2022/10/18 02:49:23;;;;;;;11.07;7.45;;;;;;;15.43;100.00;102485.91;6211490;23;20016;-85
2022/10/18 02:51:49;;;;;;;10.60;7.65;;;;;;;15.42;100.00;102496.56;6211989;23;20010;-85
2022/10/18 02:54:14;;;;;;;9.10;7.25;;;;;;;15.47;100.00;102506.41;6187662;23;20009;-85
2022/10/18 02:56:39;;;;;;;11.70;8.00;;;;;;;15.44;100.00;102497.47;6161531;23;20005;-85
2022/10/18 02:59:06;;;;;;;15.80;8.70;;;;;;;15.39;100.00;102491.16;6161696;23;20005;-86
2022/10/18 03:01:33;;;;;;;10.40;7.65;;;;;;;15.38;100.00;102498.25;6187126;23;20009;-85
2022/10/18 03:03:58;;;;;;;12.32;8.65;;;;;;;15.39;100.00;102494.72;6188643;23;20080;-85
2022/10/18 03:06:23;;;;;;;11.73;8.68;;;;;;;15.35;100.00;102491.97;6187026;23;20047;-85
2022/10/18 03:08:49;;;;;;;11.43;8.13;;;;;;;15.35;100.00;102494.66;6186511;23;20011;-85
2022/10/18 03:11:14;;;;;;;10.30;8.35;;;;;;;15.38;100.00;102498.25;6211441;23;20009;-85
2022/10/18 03:13:39;;;;;;;12.98;8.68;;;;;;;15.35;100.00;102497.31;6186433;23;20424;-85
2022/10/18 03:16:05;;;;;;;14.40;8.65;;;;;;;15.39;100.00;102499.16;6210756;23;20043;-86
2022/10/18 03:18:30;;;;;;;10.25;8.77;;;;;;;15.36;100.00;102494.66;6187792;23;20093;-85
2022/10/18 03:20:55;;;;;;;13.35;8.32;;;;;;;15.38;100.00;102502.69;6188233;23;20482;-85
2022/10/18 03:23:21;;;;;;;10.18;8.13;;;;;;;15.36;100.00;102499.09;6211523;23;20016;-85
2022/10/18 03:25:46;;;;;;;17.60;8.63;;;;;;;15.31;100.00;102499.00;6211196;23;20494;-85
2022/10/18 03:28:12;;;;;;;11.95;8.60;;;;;;;15.27;100.00;102492.72;6187515;23;20010;-85
2022/10/18 03:30:40;;;;;;;15.25;8.43;;;;;;;15.25;100.00;102499.81;6186406;23;20498;-85
2022/10/18 03:33:06;;;;;;;13.82;8.68;;;;;;;15.25;100.00;102491.81;6187757;23;20063;-85
2022/10/18 03:35:31;;;;;;;14.98;9.82;;;;;;;15.27;100.00;102499.81;6210819;23;20364;-84
2022/10/18 03:37:56;;;;;;;14.90;9.25;;;;;;;15.28;100.00;102496.28;6185949;23;20013;-85
2022/10/18 03:40:22;;;;;;;11.63;9.20;;;;;;;15.31;100.00;102503.44;6186475;23;20005;-85
2022/10/18 03:42:47;;;;;;;13.18;9.38;;;;;;;15.31;100.00;102507.00;6160853;23;20497;-85
2022/10/18 03:45:13;;;;;;;14.18;9.70;;;;;;;15.32;100.00;102502.56;6187882;23;20036;-85
2022/10/18 03:47:41;;;;;;;10.23;8.93;;;;;;;15.33;100.00;102497.28;6186492;23;20412;-85
2022/10/18 03:50:07;;;;;;;13.70;9.13;;;;;;;15.34;100.00;102498.19;6186439;23;20061;-85
2022/10/18 03:52:32;;;;;;;12.45;9.60;;;;;;;15.32;100.00;102502.56;6161994;23;20039;-85
2022/10/18 03:54:58;;;;;;;13.70;10.40;;;;;;;15.37;100.00;102498.22;6185693;23;20059;-85
2022/10/18 03:57:23;;;;;;;16.50;10.68;;;;;;;15.35;100.00;102492.88;6187146;23;20020;-85
2022/10/18 03:59:48;;;;;;;12.77;10.02;;;;;;;15.33;100.00;102488.38;6187527;23;20020;-85
2022/10/18 04:02:14;;;;;;;18.02;10.40;;;;;;;15.25;100.00;102478.50;6187140;23;20061;-85
2022/10/18 04:04:39;;;;;;;15.65;9.63;;;;;;;15.27;100.00;102481.19;6187140;23;20092;-85
2022/10/18 04:07:05;;;;;;;12.68;8.90;;;;;;;15.24;100.00;102490.00;6185104;23;20013;-86
2022/10/18 04:09:33;;;;;;;12.13;8.65;;;;;;;15.18;100.00;102484.59;6210780;23;20091;-85
2022/10/18 04:11:58;;;;;;;10.02;8.30;;;;;;;15.15;100.00;102488.94;6186173;23;20319;-85
2022/10/18 04:14:24;;;;;;;11.73;7.65;;;;;;;15.11;100.00;102485.31;6186692;23;20088;-85
2022/10/18 04:16:49;;;;;;;15.50;8.18;;;;;;;15.04;100.00;102478.13;6210745;23;20332;-85
2022/10/18 04:19:14;;;;;;;25.45;7.72;;;;;;;14.98;100.00;102475.31;6185566;23;20013;-85
2022/10/18 04:21:40;;;;;;;9.02;7.78;;;;;;;15.01;100.00;102486.03;6185355;23;20090;-85
2022/10/18 04:24:05;;;;;;;13.07;8.00;;;;;;;14.99;100.00;102483.34;6185068;23;20009;-85
2022/10/18 04:26:31;;;;;;;10.65;7.20;;;;;;;14.96;100.00;102493.03;6186519;23;20026;-86
2022/10/18 04:28:56;;;;;;;14.40;9.00;;;;;;;14.95;100.00;102493.94;6184849;23;20096;-85
2022/10/18 04:31:22;;;;;;;16.08;9.38;;;;;;;15.01;100.00;102502.00;6160983;23;20016;-85
2022/10/18 04:33:47;;;;;;;13.93;10.00;;;;;;;15.02;100.00;102507.34;6160291;23;20423;-85
2022/10/18 04:36:12;;;;;;;12.43;9.55;;;;;;;15.01;100.00;102513.56;6162087;23;20005;-85
2022/10/18 04:38:40;;;;;;;13.95;9.50;;;;;;;14.98;100.00;102501.94;6211053;23;20016;-85
2022/10/18 04:41:05;;;;;;;12.32;9.35;;;;;;;15.02;100.00;102503.81;6161855;23;20009;-86
2022/10/18 04:43:31;;;;;;;11.88;9.55;;;;;;;15.02;100.00;102490.50;6187425;23;20060;-85
2022/10/18 04:45:56;;;;;;;14.93;11.27;;;;;;;15.03;100.00;102510.91;6186163;23;20339;-85
2022/10/18 04:48:22;;;;;;;14.27;10.25;;;;;;;15.00;100.00;102503.78;6211604;23;20070;-85
2022/10/18 04:50:48;;;;;;;13.68;9.70;;;;;;;14.98;100.00;102501.94;6160961;23;20107;-86
2022/10/18 04:53:15;;;;;;;12.27;9.48;;;;;;;14.97;100.00;102506.38;6186167;23;20036;-86
2022/10/18 04:55:45;;;;;;;11.52;9.88;;;;;;;14.93;100.00;102496.53;6209977;23;20009;-85
2022/10/18 04:58:10;;;;;;;11.20;8.68;;;;;;;14.91;100.00;102500.94;6209790;23;20088;-85
2022/10/18 05:00:40;;;;;;;14.38;9.75;;;;;;;14.87;100.00;102504.41;6185257;23;20036;-86
2022/10/18 05:03:06;;;;;;;16.38;10.55;;;;;;;14.86;100.00;102510.63;6186926;23;20064;-86
2022/10/18 05:05:31;;;;;;;14.43;11.57;;;;;;;14.85;100.00;102507.91;6185814;23;20036;-85
2022/10/18 05:07:56;;;;;;;15.18;10.52;;;;;;;14.85;100.00;102507.91;6185046;23;20012;-85
2022/10/18 05:10:22;;;;;;;16.05;12.27;;;;;;;14.84;100.00;102512.31;6186124;23;20036;-85
2022/10/18 05:12:48;;;;;;;14.95;12.05;;;;;;;14.85;100.00;102503.47;6160165;23;20016;-85
2022/10/18 05:15:16;;;;;;;16.10;11.68;;;;;;;14.81;100.00;102511.38;6184945;23;20009;-85
2022/10/18 05:17:41;;;;;;;17.95;12.60;;;;;;;14.83;100.00;102517.63;6186266;23;20489;-86
2022/10/18 05:20:07;;;;;;;14.40;11.88;;;;;;;14.86;100.00;102515.94;6159736;23;20038;-85
2022/10/18 05:22:32;;;;;;;15.43;12.27;;;;;;;14.89;100.00;102523.06;6186665;23;20412;-84
2022/10/18 05:24:58;;;;;;;17.40;12.70;;;;;;;14.88;100.00;102527.50;6187386;23;20008;-86
2022/10/18 05:27:23;;;;;;;19.15;12.43;;;;;;;14.89;100.00;102523.06;6160064;23;20031;-86
2022/10/18 05:29:48;;;;;;;18.17;11.90;;;;;;;14.85;100.00;102524.75;6186269;23;20013;-84
2022/10/18 05:32:14;;;;;;;20.45;12.68;;;;;;;14.88;100.00;102532.81;6161004;23;20301;-85
2022/10/18 05:34:39;;;;;;;23.35;13.00;;;;;;;14.86;100.00;102529.25;6184750;23;20336;-85
2022/10/18 05:37:06;;;;;;;27.52;14.15;;;;;;;14.86;100.00;102534.56;6160240;23;20052;-86
2022/10/18 05:39:31;;;;;;;22.63;14.10;;;;;;;14.83;100.00;102522.97;6186384;23;20013;-85
2022/10/18 05:41:57;;;;;;;21.55;14.23;;;;;;;14.86;100.00;102523.91;6161009;23;20304;-85
2022/10/18 05:44:22;;;;;;;23.55;14.07;;;;;;;14.85;100.00;102527.41;6184892;23;20020;-85
2022/10/18 05:46:47;;;;;;;22.38;14.27;;;;;;;14.88;100.00;102527.50;6160080;23;20450;-85
2022/10/18 05:49:13;;;;;;;22.20;15.15;;;;;;;14.83;100.00;102520.28;6160026;23;20005;-85
2022/10/18 05:51:38;;;;;;;43.00;14.93;;;;;;;14.82;100.00;102529.13;6186271;23;20005;-85
2022/10/18 05:54:04;;;;;;;43.05;14.80;;;;;;;14.82;100.00;102532.72;6184640;23;20104;-85
2022/10/18 05:56:29;;;;;;;26.48;14.60;;;;;;;14.82;100.00;102527.38;6185897;23;20036;-85
2022/10/18 05:58:55;;;;;;;27.55;14.00;;;;;;;14.83;100.00;102530.94;6159637;23;20432;-85
2022/10/18 06:01:21;;;;;;;41.67;14.32;;;;;;;14.81;100.00;102538.88;6160195;23;20401;-84
2022/10/18 06:03:46;;;;;;;27.85;14.45;;;;;;;14.83;100.00;102554.91;6184855;23;20059;-85
2022/10/18 06:06:12;;;;;;;30.08;14.73;;;;;;;14.81;100.00;102540.63;6137519;23;20016;-85
2022/10/18 06:08:39;;;;;;;28.88;13.98;;;;;;;14.85;100.00;102545.16;6188234;23;20036;-85
2022/10/18 06:11:13;;;;;;;18.65;13.50;;;;;;;14.82;100.00;102540.69;6140444;23;20024;-85
2022/10/18 06:13:49;;;;;;;17.17;12.45;;;;;;;14.83;100.00;102547.81;6188232;23;20033;-85
2022/10/18 06:16:16;;;;;;;42.45;13.50;;;;;;;14.83;100.00;102552.22;6188820;23;20001;-85
2022/10/18 06:18:42;;;;;;;30.20;13.48;;;;;;;14.80;100.00;102553.06;6187538;23;20039;-85
2022/10/18 06:21:08;;;;;;;34.17;13.38;;;;;;;14.80;100.00;102552.16;6161785;23;20009;-85
2022/10/18 06:23:33;;;;;;;33.00;12.57;;;;;;;14.76;100.00;102552.09;6161693;23;20324;-86
2022/10/18 06:26:05;;;;;;;14.80;11.02;;;;;;;14.76;100.00;102551.19;6186272;23;20040;-85
2022/10/18 06:28:33;;;;;;;32.63;12.45;;;;;;;14.71;100.00;102559.09;6187757;23;20012;-85
2022/10/18 06:30:58;;;;;;;31.02;11.60;;;;;;;14.67;100.00;102562.53;6161808;23;20071;-85
2022/10/18 06:33:24;;;;;;;28.88;12.02;;;;;;;14.69;100.00;102573.25;6161900;23;20398;-85
2022/10/18 06:35:54;;;;;;;31.48;11.80;;;;;;;14.69;100.00;102575.91;6136900;23;20009;-85
2022/10/18 06:38:20;;;;;;;24.83;12.27;;;;;;;14.65;100.00;102574.03;6187962;23;20025;-85
2022/10/18 06:40:47;;;;;;;37.45;12.77;;;;;;;14.66;100.00;102578.47;6186288;23;20044;-85
2022/10/18 06:43:12;;;;;;;24.98;12.57;;;;;;;14.68;100.00;102572.31;6161594;23;20012;-85
2022/10/18 06:45:38;;;;;;;38.45;13.05;;;;;;;14.73;100.00;102573.34;6187822;23;20035;-85
2022/10/18 06:48:04;;;;;;;47.42;12.80;;;;;;;14.75;100.00;102573.34;6161350;23;20013;-86
2022/10/18 06:50:29;;;;;;;37.28;12.10;;;;;;;14.81;100.00;102581.44;6162134;23;20009;-85
2022/10/18 06:52:54;;;;;;;42.17;12.18;;;;;;;14.82;100.00;102593.00;6161928;23;20487;-85
2022/10/18 06:55:20;;;;;;;35.95;11.38;;;;;;;14.80;100.00;102600.06;6188052;23;20009;-85
2022/10/18 06:57:45;;;;;;;50.10;11.98;;;;;;;14.76;100.00;102596.44;6187450;23;20005;-85
2022/10/18 07:00:11;;;;;;;41.72;11.55;;;;;;;14.77;100.00;102604.47;6136907;23;20396;-85
2022/10/18 07:02:40;;;;;;;34.13;11.45;;;;;;;14.73;100.00;102607.94;6186221;23;20012;-85
2022/10/18 07:05:09;;;;;;;35.42;11.40;;;;;;;14.71;100.00;102608.75;6161468;23;20016;-85
2022/10/18 07:07:36;;;;;;;46.22;11.82;;;;;;;14.71;100.00;102614.97;6187710;23;20009;-85
2022/10/18 07:10:02;;;;;;;32.85;11.25;;;;;;;14.69;100.00;102614.03;6187689;23;20056;-85
2022/10/18 07:12:27;;;;;;;15.75;11.40;;;;;;;14.76;100.00;102620.38;6161383;23;20480;-85
2022/10/18 07:14:53;;;;;;;29.80;11.43;;;;;;;14.76;100.00;102620.38;6136250;23;20037;-85
2022/10/18 07:17:19;;;;;;;35.42;11.70;;;;;;;14.83;100.00;102624.09;6161358;23;20014;-85
2022/10/18 07:19:44;;;;;;;31.70;11.80;;;;;;;14.87;100.00;102628.63;6187548;23;20016;-85
2022/10/18 07:22:10;;;;;;;38.80;12.45;;;;;;;14.89;100.00;102622.44;6161413;23;20056;-85
2022/10/18 07:24:35;;;;;;;34.20;11.95;;;;;;;14.91;100.00;102633.16;6136652;23;20082;-85
2022/10/18 07:27:01;;;;;;;28.70;12.05;;;;;;;14.97;100.00;102641.25;6161201;23;20055;-85
2022/10/18 07:29:26;;;;;;;37.55;11.85;;;;;;;15.00;100.00;102641.31;6187124;23;20020;-85
2022/10/18 07:31:51;;;;;;;34.95;11.80;;;;;;;15.00;100.00;102636.88;6160836;23;20313;-85
2022/10/18 07:34:19;;;;;;;53.10;11.38;;;;;;;14.93;100.00;102632.28;6161084;23;20005;-85
2022/10/18 07:36:45;;;;;;;38.03;10.95;;;;;;;14.98;100.00;102635.94;6137621;23;20044;-85
2022/10/18 07:39:10;;;;;;;20.95;11.50;;;;;;;15.04;100.00;102648.50;6160682;23;20005;-85
2022/10/18 07:41:36;;;;;;;32.17;11.48;;;;;;;14.96;100.00;102642.13;6161098;23;20498;-85
2022/10/18 07:44:02;;;;;;;29.48;11.80;;;;;;;15.03;100.00;102675.97;6161387;23;20328;-85
2022/10/18 07:46:28;;;;;;;37.03;12.77;;;;;;;14.97;100.00;102666.09;6161685;23;20036;-85
2022/10/18 07:48:53;;;;;;;32.25;12.45;;;;;;;14.98;100.00;102669.66;6162293;23;20309;-85
2022/10/18 07:51:19;;;;;;;30.17;12.48;;;;;;;14.96;100.00;102674.06;6188052;23;20511;-85
2022/10/18 07:53:45;;;;;;;26.17;11.88;;;;;;;15.00;100.00;102687.47;6187853;23;20005;-85
2022/10/18 07:56:16;;;;;;;30.30;12.35;;;;;;;15.00;100.00;102689.25;6186628;23;20493;-85
2022/10/18 07:58:42;;;;;;;29.35;12.90;;;;;;;15.04;100.00;102685.78;6163181;23;20036;-85
2022/10/18 08:01:11;;;;;;;23.92;13.07;;;;;;;15.06;100.00;102694.69;6188896;23;20013;-85
2022/10/18 08:03:37;;;;;;;22.73;12.90;;;;;;;15.05;100.00;102697.31;6162620;23;20324;-85
2022/10/18 08:06:04;;;;;;;20.00;12.15;;;;;;;15.07;100.00;102701.81;6187728;23;20040;-85
2022/10/18 08:08:30;;;;;;;24.20;13.10;;;;;;;15.10;100.00;102707.19;6162031;23;20010;-85
2022/10/18 08:11:08;;;;;;;23.95;13.90;;;;;;;15.16;100.00;102709.09;6187155;23;20055;-85
2022/10/18 08:13:33;;;;;;;22.58;13.50;;;;;;;15.17;100.00;102708.25;6162931;23;20332;-85
2022/10/18 08:16:05;;;;;;;23.48;13.98;;;;;;;15.22;100.00;102711.91;6189134;23;20011;-85
2022/10/18 08:18:31;;;;;;;23.92;13.82;;;;;;;15.26;100.00;102724.44;6189174;23;20076;-85
2022/10/18 08:20:59;;;;;;;25.98;14.20;;;;;;;15.27;100.00;102715.56;6190965;23;20344;-85
2022/10/18 08:23:25;;;;;;;23.83;13.90;;;;;;;15.27;100.00;102719.13;6190763;23;20005;-85
2022/10/18 08:25:50;;;;;;;31.45;12.32;;;;;;;15.32;100.00;102720.97;6189614;23;20083;-85
2022/10/18 08:28:16;;;;;;;20.25;13.27;;;;;;;15.27;100.00;102723.56;6163884;23;20356;-85
2022/10/18 08:30:42;;;;;;;23.38;12.77;;;;;;;15.24;100.00;102721.69;6186035;23;20025;-85
2022/10/18 08:33:11;;;;;;;28.05;13.20;;;;;;;15.33;100.00;102722.78;6189966;23;20289;-85
2022/10/18 08:35:36;;;;;;;27.15;13.52;;;;;;;15.37;100.00;102733.53;6190194;23;20009;-85
2022/10/18 08:38:02;;;;;;;25.33;14.00;;;;;;;15.46;100.00;102733.75;6189572;23;20028;-85
2022/10/18 08:40:28;;;;;;;24.80;13.38;;;;;;;15.53;100.00;102734.75;6191759;23;20009;-84
2022/10/18 08:43:09;;;;;;;25.52;13.38;;;;;;;15.58;100.00;102733.06;6165958;23;20344;-85
2022/10/18 08:45:40;;;;;;;21.20;12.98;;;;;;;15.62;99.68;102739.38;6217131;23;20309;-86
2022/10/18 08:48:15;;;;;;;22.85;13.00;;;;;;;15.72;100.00;102744.06;6192840;23;20052;-85
2022/10/18 08:50:42;;;;;;;23.65;13.23;;;;;;;15.88;100.00;102742.56;6193465;23;20001;-85
2022/10/18 08:53:23;;;;;;;25.13;13.38;;;;;;;16.03;100.00;102742.88;6193768;23;20009;-85
2022/10/18 08:56:22;;;;;;;18.48;11.35;;;;;;;16.11;97.01;102748.38;6216975;23;20084;-85
2022/10/18 08:58:50;;;;;;;23.05;11.32;;;;;;;16.13;96.76;102744.84;6189793;23;20017;-85
2022/10/18 09:01:35;;;;;;;20.27;11.43;;;;;;;16.35;96.36;102745.22;6192931;23;20005;-85
2022/10/18 09:04:18;;;;;;;22.15;12.18;;;;;;;16.69;96.52;102742.22;6195063;23;20005;-85
2022/10/18 09:07:22;;;;;;;22.60;12.05;;;;;;;16.93;93.90;102739.09;6216465;23;20459;-84
2022/10/18 09:10:03;;;;;;;20.85;11.80;;;;;;;17.44;93.90;102743.34;6183868;23;20036;-85
2022/10/18 09:12:47;;;;;;;19.63;10.70;;;;;;;17.61;90.67;102740.00;6222394;23;20009;-85
2022/10/18 09:15:29;;;;;;;20.60;10.98;;;;;;;18.16;89.84;102746.88;6197868;23;20009;-85
2022/10/18 09:18:19;;;;;;;20.10;10.30;;;;;;;18.82;88.37;102743.88;6198711;23;20012;-85
2022/10/18 09:20:57;;;;;;;18.05;9.75;;;;;;;19.32;83.06;102746.88;6198071;23;20048;-85
2022/10/18 09:23:45;;;;;;;20.00;10.38;;;;;;;19.84;83.13;102757.81;6219860;23;20055;-84
2022/10/18 09:26:19;;;;;;;18.05;9.57;;;;;;;20.29;79.81;102745.34;6194437;23;20016;-85
2022/10/18 09:29:11;;;;;;;20.67;9.38;;;;;;;20.73;78.87;102734.66;6217624;23;20007;-85
2022/10/18 09:31:43;;;;;;;14.60;9.20;;;;;;;21.01;74.08;102730.09;6195766;23;20064;-85
2022/10/18 09:34:18;;;;;;;17.73;9.27;;;;;;;21.31;72.23;102736.28;6194903;23;20069;-85
2022/10/18 09:36:44;;;;;;;19.63;10.38;;;;;;;21.70;69.90;102728.97;6220831;23;20005;-85
2022/10/18 09:39:14;;;;;;;20.90;10.40;;;;;;;21.95;70.10;102735.09;6220034;23;20009;-85
2022/10/18 09:42:04;;;;;;;20.90;9.82;;;;;;;22.08;71.75;102734.13;6196432;23;20005;-85
2022/10/18 09:44:37;;;;;;;21.70;10.02;;;;;;;22.33;69.96;102739.38;6195952;23;20047;-84
2022/10/18 09:47:23;;;;;;;19.95;9.80;;;;;;;22.45;69.10;102755.44;6195706;23;20005;-85
2022/10/18 09:50:00;;;;;;;20.05;10.43;;;;;;;22.45;66.47;102748.25;6195577;23;20009;-85
2022/10/18 09:52:38;;;;;;;20.70;11.20;;;;;;;22.60;67.16;102735.53;6199282;23;20016;-84
2022/10/18 09:55:13;;;;;;;16.63;10.07;;;;;;;22.91;64.25;102747.84;6198277;23;20005;-86
2022/10/18 09:57:46;;;;;;;20.08;9.70;;;;;;;22.92;65.28;102751.44;6190108;23;20059;-84
2022/10/18 10:00:21;;;;;;;16.58;9.90;;;;;;;22.99;63.77;102732.47;6215301;23;20012;-85
2022/10/18 10:02:47;;;;;;;20.10;9.50;;;;;;;23.47;63.30;102740.91;6191935;23;20438;-85
2022/10/18 10:05:13;;;;;;;17.77;9.30;;;;;;;23.72;60.35;102737.88;6192631;23;20005;-85
2022/10/18 10:07:47;;;;;;;17.85;8.73;;;;;;;23.81;60.93;102732.38;6194618;23;20012;-85
2022/10/18 10:10:15;;;;;;;18.85;8.25;;;;;;;24.15;60.00;102731.84;6194322;23;20336;-85
2022/10/18 10:12:41;;;;;;;19.00;8.52;;;;;;;24.30;56.88;102725.31;6195721;23;20001;-85
2022/10/18 10:15:22;;;;;;;16.27;8.15;;;;;;;24.58;60.49;102729.38;6218691;23;20016;-85
2022/10/18 10:17:59;;;;;;;17.50;8.07;;;;;;;24.56;56.97;102736.59;6193707;23;20060;-84
2022/10/18 10:20:33;;;;;;;13.60;7.55;;;;;;;24.76;55.17;102725.44;6192549;23;20076;-84
2022/10/18 10:23:31;;;;;;;18.65;7.68;;;;;;;24.95;58.80;102729.56;6193606;23;20005;-84
2022/10/18 10:26:03;;;;;;;15.63;7.68;;;;;;;25.03;53.48;102731.25;6177336;23;20013;-84
2022/10/18 10:28:42;;;;;;;17.35;7.88;;;;;;;25.22;53.38;102733.59;6187683;23;20024;-84
2022/10/18 10:31:24;;;;;;;15.00;7.20;;;;;;;25.23;55.25;102743.50;6187051;23;20040;-84
2022/10/18 10:34:13;;;;;;;13.20;6.78;;;;;;;25.31;55.58;102742.41;6189208;23;20001;-84
2022/10/18 10:36:47;;;;;;;19.48;7.28;;;;;;;25.31;53.38;102740.63;6188787;23;20366;-85
2022/10/18 10:39:18;;;;;;;15.82;6.65;;;;;;;25.19;49.90;102741.78;6188192;23;20057;-84
2022/10/18 10:41:59;;;;;;;12.35;6.50;;;;;;;25.16;50.86;102744.53;6160869;23;20005;-84
2022/10/18 10:44:28;;;;;;;17.90;6.97;;;;;;;25.19;52.47;102754.41;6188121;23;20009;-84
2022/10/18 10:46:55;;;;;;;13.13;5.63;;;;;;;25.25;49.74;102761.50;6186743;23;20009;-84
2022/10/18 10:49:22;;;;;;;15.43;5.75;;;;;;;25.45;48.59;102757.47;6187054;23;20007;-84
2022/10/18 10:51:57;;;;;;;14.95;5.57;;;;;;;25.66;49.70;102752.53;6162443;23;20005;-84
2022/10/18 10:54:25;;;;;;;13.25;6.38;;;;;;;25.51;48.90;102761.84;6190625;23;20012;-84
2022/10/18 10:57:04;;;;;;;15.15;6.32;;;;;;;25.89;51.62;102752.91;6190335;23;20012;-83
2022/10/18 10:59:41;;;;;;;14.02;6.35;;;;;;;26.09;48.54;102752.47;6193486;23;20009;-84
2022/10/18 11:02:30;;;;;;;15.32;6.45;;;;;;;26.35;51.07;102762.66;6192009;23;20005;-84
2022/10/18 11:05:15;;;;;;;16.15;7.25;;;;;;;26.46;51.87;102751.56;6188291;23;20036;-84
2022/10/18 11:07:45;;;;;;;18.13;7.65;;;;;;;26.35;49.08;102761.78;6162893;23;20058;-84
2022/10/18 11:10:21;;;;;;;15.43;7.10;;;;;;;26.29;46.95;102761.91;6188961;23;20435;-84
2022/10/18 11:13:01;;;;;;;15.88;6.68;;;;;;;26.49;46.95;102756.03;6189019;23;20009;-84
2022/10/18 11:15:34;;;;;;;15.73;6.50;;;;;;;26.19;46.40;102759.44;6189139;23;20001;-83
2022/10/18 11:18:37;;;;;;;13.68;5.88;;;;;;;25.83;50.60;102765.72;6188504;23;20013;-84
2022/10/18 11:21:10;;;;;;;;;;;;;;;25.52;53.59;102771.75;6157441;23;20076;-84